sensor_id;sensor_type;location;lat;lon;timestamp;pressure;altitude;pressure_sealevel;temperature;humidity
57086;BME280;42964;42.910;23.792;2022-09-09T00:01:23;97685.06;;;20.00;54.18
57086;BME280;42964;42.910;23.792;2022-09-09T00:06:44;97673.66;;;20.22;52.44
57086;BME280;42964;42.910;23.792;2022-09-09T00:11:52;97684.84;;;20.49;51.46
57086;BME280;42964;42.910;23.792;2022-09-09T00:17:00;97670.06;;;20.65;50.26
57086;BME280;42964;42.910;23.792;2022-09-09T00:27:46;97669.16;;;20.87;49.14
57086;BME280;42964;42.910;23.792;2022-09-09T00:32:48;97662.75;;;20.92;48.72
57086;BME280;42964;42.910;23.792;2022-09-09T00:37:50;97658.97;;;20.98;48.31
57086;BME280;42964;42.910;23.792;2022-09-09T00:42:58;97646.66;;;20.99;48.01
57086;BME280;42964;42.910;23.792;2022-09-09T00:48:09;97642.09;;;21.02;47.81
57086;BME280;42964;42.910;23.792;2022-09-09T00:58:28;97647.66;;;20.96;50.31
57086;BME280;42964;42.910;23.792;2022-09-09T01:03:51;97642.84;;;20.65;52.45
57086;BME280;42964;42.910;23.792;2022-09-09T01:30:16;97639.19;;;19.15;58.29
57086;BME280;42964;42.910;23.792;2022-09-09T01:35:33;97630.97;;;19.00;58.85
57086;BME280;42964;42.910;23.792;2022-09-09T01:40:34;97624.88;;;18.75;59.89
57086;BME280;42964;42.910;23.792;2022-09-09T01:45:33;97623.34;;;18.68;59.78
57086;BME280;42964;42.910;23.792;2022-09-09T01:50:33;97634.84;;;18.65;60.41
57086;BME280;42964;42.910;23.792;2022-09-09T01:55:40;97649.38;;;18.50;61.26
57086;BME280;42964;42.910;23.792;2022-09-09T02:00:44;97648.75;;;18.42;60.59
57086;BME280;42964;42.910;23.792;2022-09-09T02:06:14;97632.03;;;18.45;59.39
57086;BME280;42964;42.910;23.792;2022-09-09T02:11:22;97616.47;;;18.64;55.43
57086;BME280;42964;42.910;23.792;2022-09-09T02:21:41;97636.72;;;19.57;51.35
57086;BME280;42964;42.910;23.792;2022-09-09T02:26:44;97647.63;;;19.70;52.21
57086;BME280;42964;42.910;23.792;2022-09-09T02:31:47;97641.50;;;19.70;53.10
57086;BME280;42964;42.910;23.792;2022-09-09T02:36:48;97649.53;;;19.43;54.57
57086;BME280;42964;42.910;23.792;2022-09-09T02:41:48;97664.69;;;19.13;56.17
57086;BME280;42964;42.910;23.792;2022-09-09T02:47:09;97661.53;;;19.03;56.47
57086;BME280;42964;42.910;23.792;2022-09-09T02:52:14;97644.28;;;18.96;55.46
57086;BME280;42964;42.910;23.792;2022-09-09T02:57:22;97632.22;;;19.14;53.13
57086;BME280;42964;42.910;23.792;2022-09-09T03:02:22;97625.13;;;19.39;51.64
57086;BME280;42964;42.910;23.792;2022-09-09T03:07:21;97648.84;;;19.61;51.08
57086;BME280;42964;42.910;23.792;2022-09-09T03:12:20;97629.06;;;19.73;50.82
57086;BME280;42964;42.910;23.792;2022-09-09T03:17:19;97637.66;;;19.78;50.51
57086;BME280;42964;42.910;23.792;2022-09-09T03:22:18;97633.84;;;19.85;50.19
57086;BME280;42964;42.910;23.792;2022-09-09T03:27:18;97639.78;;;19.91;50.07
57086;BME280;42964;42.910;23.792;2022-09-09T03:32:18;97639.53;;;19.97;49.70
57086;BME280;42964;42.910;23.792;2022-09-09T03:37:18;97650.75;;;20.02;49.66
57086;BME280;42964;42.910;23.792;2022-09-09T03:42:18;97650.69;;;20.03;49.41
57086;BME280;42964;42.910;23.792;2022-09-09T03:47:18;97647.31;;;20.00;50.05
57086;BME280;42964;42.910;23.792;2022-09-09T03:52:17;97663.56;;;19.89;50.38
57086;BME280;42964;42.910;23.792;2022-09-09T03:57:17;97670.03;;;19.80;50.73
57086;BME280;42964;42.910;23.792;2022-09-09T04:02:16;97665.00;;;19.74;51.03
57086;BME280;42964;42.910;23.792;2022-09-09T04:07:15;97676.59;;;19.70;50.80
57086;BME280;42964;42.910;23.792;2022-09-09T04:12:14;97658.72;;;19.55;51.77
57086;BME280;42964;42.910;23.792;2022-09-09T04:17:13;97675.66;;;19.48;53.46
57086;BME280;42964;42.910;23.792;2022-09-09T04:22:12;97678.59;;;19.16;55.63
57086;BME280;42964;42.910;23.792;2022-09-09T04:27:11;97671.75;;;18.87;58.04
57086;BME280;42964;42.910;23.792;2022-09-09T04:32:10;97680.88;;;18.77;58.13
57086;BME280;42964;42.910;23.792;2022-09-09T04:37:10;97682.28;;;18.60;60.03
57086;BME280;42964;42.910;23.792;2022-09-09T04:42:09;97681.50;;;18.58;60.57
57086;BME280;42964;42.910;23.792;2022-09-09T04:47:08;97676.38;;;18.54;61.47
57086;BME280;42964;42.910;23.792;2022-09-09T04:52:07;97679.00;;;18.54;61.88
57086;BME280;42964;42.910;23.792;2022-09-09T04:57:05;97662.81;;;18.66;61.91
57086;BME280;42964;42.910;23.792;2022-09-09T05:02:05;97652.97;;;18.73;61.08
57086;BME280;42964;42.910;23.792;2022-09-09T05:07:04;97650.63;;;18.90;59.50
57086;BME280;42964;42.910;23.792;2022-09-09T05:12:03;97659.22;;;19.19;59.15
57086;BME280;42964;42.910;23.792;2022-09-09T05:17:03;97659.38;;;19.38;58.62
57086;BME280;42964;42.910;23.792;2022-09-09T05:22:02;97649.97;;;19.54;60.41
57086;BME280;42964;42.910;23.792;2022-09-09T05:27:03;97650.28;;;19.70;59.39
57086;BME280;42964;42.910;23.792;2022-09-09T05:32:03;97654.09;;;19.83;58.33
57086;BME280;42964;42.910;23.792;2022-09-09T05:37:03;97644.63;;;20.01;58.19
57086;BME280;42964;42.910;23.792;2022-09-09T05:42:03;97644.19;;;20.12;58.23
57086;BME280;42964;42.910;23.792;2022-09-09T05:47:03;97637.09;;;20.35;58.86
57086;BME280;42964;42.910;23.792;2022-09-09T05:52:02;97632.91;;;20.51;61.42
57086;BME280;42964;42.910;23.792;2022-09-09T05:57:02;97640.03;;;20.69;60.45
57086;BME280;42964;42.910;23.792;2022-09-09T06:02:02;97647.19;;;20.86;59.30
57086;BME280;42964;42.910;23.792;2022-09-09T06:07:01;97654.50;;;21.00;56.84
57086;BME280;42964;42.910;23.792;2022-09-09T06:12:00;97655.41;;;21.20;56.66
57086;BME280;42964;42.910;23.792;2022-09-09T06:16:59;97657.13;;;21.40;56.43
57086;BME280;42964;42.910;23.792;2022-09-09T06:21:58;97638.94;;;21.52;55.41
57086;BME280;42964;42.910;23.792;2022-09-09T06:26:57;97651.94;;;21.76;51.97
57086;BME280;42964;42.910;23.792;2022-09-09T06:31:56;97644.94;;;22.11;48.34
57086;BME280;42964;42.910;23.792;2022-09-09T06:36:56;97635.47;;;22.59;48.14
57086;BME280;42964;42.910;23.792;2022-09-09T06:41:58;97643.56;;;22.91;48.33
57086;BME280;42964;42.910;23.792;2022-09-09T06:46:57;97639.59;;;23.16;46.25
57086;BME280;42964;42.910;23.792;2022-09-09T06:51:56;97634.38;;;23.63;44.99
57086;BME280;42964;42.910;23.792;2022-09-09T06:56:55;97629.81;;;23.97;43.39
57086;BME280;42964;42.910;23.792;2022-09-09T07:01:54;97637.16;;;24.24;42.64
57086;BME280;42964;42.910;23.792;2022-09-09T07:06:53;97643.94;;;24.44;42.87
57086;BME280;42964;42.910;23.792;2022-09-09T07:11:52;97654.03;;;24.67;42.24
57086;BME280;42964;42.910;23.792;2022-09-09T07:16:51;97642.78;;;24.78;42.13
57086;BME280;42964;42.910;23.792;2022-09-09T07:21:50;97652.22;;;24.98;42.34
57086;BME280;42964;42.910;23.792;2022-09-09T07:26:49;97654.97;;;25.25;41.21
57086;BME280;42964;42.910;23.792;2022-09-09T07:31:48;97645.56;;;25.48;41.14
57086;BME280;42964;42.910;23.792;2022-09-09T07:36:47;97654.09;;;25.68;40.42
57086;BME280;42964;42.910;23.792;2022-09-09T07:41:48;97630.50;;;25.90;40.71
57086;BME280;42964;42.910;23.792;2022-09-09T07:46:48;97635.72;;;26.19;40.80
57086;BME280;42964;42.910;23.792;2022-09-09T07:51:47;97622.19;;;26.49;40.57
57086;BME280;42964;42.910;23.792;2022-09-09T07:56:47;97618.91;;;26.71;40.21
57086;BME280;42964;42.910;23.792;2022-09-09T08:01:50;97620.31;;;26.90;39.63
57086;BME280;42964;42.910;23.792;2022-09-09T08:06:58;97626.06;;;26.96;38.53
57086;BME280;42964;42.910;23.792;2022-09-09T08:11:58;97627.00;;;26.95;38.89
57086;BME280;42964;42.910;23.792;2022-09-09T08:16:57;97625.84;;;26.99;38.30
57086;BME280;42964;42.910;23.792;2022-09-09T08:21:56;97634.81;;;26.98;38.58
57086;BME280;42964;42.910;23.792;2022-09-09T08:26:55;97636.94;;;27.06;37.80
57086;BME280;42964;42.910;23.792;2022-09-09T08:31:58;97639.38;;;27.22;37.88
57086;BME280;42964;42.910;23.792;2022-09-09T08:36:58;97648.00;;;27.38;37.86
57086;BME280;42964;42.910;23.792;2022-09-09T08:42:13;97636.31;;;27.65;37.81
57086;BME280;42964;42.910;23.792;2022-09-09T08:57:57;97646.09;;;28.14;36.50
57086;BME280;42964;42.910;23.792;2022-09-09T09:03:19;97632.97;;;28.35;36.30
57086;BME280;42964;42.910;23.792;2022-09-09T09:13:39;97629.72;;;28.78;36.30
57086;BME280;42964;42.910;23.792;2022-09-09T09:18:41;97614.81;;;28.98;36.26
57086;BME280;42964;42.910;23.792;2022-09-09T09:23:47;97615.53;;;29.12;35.71
57086;BME280;42964;42.910;23.792;2022-09-09T09:28:47;97612.50;;;29.16;36.03
57086;BME280;42964;42.910;23.792;2022-09-09T09:33:50;97603.25;;;29.20;35.45
57086;BME280;42964;42.910;23.792;2022-09-09T09:38:57;97604.25;;;29.19;35.69
57086;BME280;42964;42.910;23.792;2022-09-09T09:43:58;97600.97;;;29.38;35.44
57086;BME280;42964;42.910;23.792;2022-09-09T09:49:05;97603.63;;;29.72;34.97
57086;BME280;42964;42.910;23.792;2022-09-09T09:54:27;97602.72;;;29.94;34.86
57086;BME280;42964;42.910;23.792;2022-09-09T10:04:26;97599.31;;;30.57;34.81
57086;BME280;42964;42.910;23.792;2022-09-09T10:09:28;97597.00;;;30.73;33.21
57086;BME280;42964;42.910;23.792;2022-09-09T10:14:45;97608.03;;;31.01;34.39
57086;BME280;42964;42.910;23.792;2022-09-09T10:25:21;97597.34;;;31.41;33.72
57086;BME280;42964;42.910;23.792;2022-09-09T10:35:34;97598.63;;;31.06;33.92
57086;BME280;42964;42.910;23.792;2022-09-09T10:46:02;97612.66;;;30.03;34.98
57086;BME280;42964;42.910;23.792;2022-09-09T10:56:16;97625.28;;;29.46;35.98
57086;BME280;42964;42.910;23.792;2022-09-09T11:01:31;97629.28;;;29.29;35.82
57086;BME280;42964;42.910;23.792;2022-09-09T11:06:37;97617.97;;;29.03;35.53
57086;BME280;42964;42.910;23.792;2022-09-09T11:12:15;97621.47;;;29.15;36.00
57086;BME280;42964;42.910;23.792;2022-09-09T11:17:29;97631.69;;;29.21;37.60
57086;BME280;42964;42.910;23.792;2022-09-09T11:22:40;97618.44;;;29.20;36.54
57086;BME280;42964;42.910;23.792;2022-09-09T11:38:47;97606.06;;;29.19;38.70
57086;BME280;42964;42.910;23.792;2022-09-09T11:43:51;97598.53;;;29.24;38.69
57086;BME280;42964;42.910;23.792;2022-09-09T11:49:01;97601.81;;;29.39;37.89
57086;BME280;42964;42.910;23.792;2022-09-09T11:54:49;97603.03;;;29.46;38.61
57086;BME280;42964;42.910;23.792;2022-09-09T11:59:25;97597.56;;;29.36;38.82
57086;BME280;42964;42.910;23.792;2022-09-09T12:04:37;97596.09;;;29.55;39.54
57086;BME280;42964;42.910;23.792;2022-09-09T12:09:58;97580.16;;;29.53;38.39
57086;BME280;42964;42.910;23.792;2022-09-09T12:20:19;97570.84;;;29.36;39.79
57086;BME280;42964;42.910;23.792;2022-09-09T12:30:31;97574.25;;;29.16;38.96
57086;BME280;42964;42.910;23.792;2022-09-09T12:35:32;97576.09;;;29.26;38.95
57086;BME280;42964;42.910;23.792;2022-09-09T12:40:33;97567.06;;;29.50;39.94
57086;BME280;42964;42.910;23.792;2022-09-09T12:45:34;97535.94;;;29.60;39.03
57086;BME280;42964;42.910;23.792;2022-09-09T12:50:37;97536.44;;;29.98;38.86
57086;BME280;42964;42.910;23.792;2022-09-09T12:55:38;97527.63;;;30.28;38.71
57086;BME280;42964;42.910;23.792;2022-09-09T13:00:49;97519.47;;;30.29;37.69
57086;BME280;42964;42.910;23.792;2022-09-09T13:05:51;97507.47;;;30.24;37.88
57086;BME280;42964;42.910;23.792;2022-09-09T13:10:57;97509.09;;;30.15;38.60
57086;BME280;42964;42.910;23.792;2022-09-09T13:16:03;97494.53;;;30.08;38.77
57086;BME280;42964;42.910;23.792;2022-09-09T13:21:03;97492.13;;;30.05;37.96
57086;BME280;42964;42.910;23.792;2022-09-09T13:26:04;97496.09;;;29.78;38.25
57086;BME280;42964;42.910;23.792;2022-09-09T13:31:18;97498.38;;;29.50;38.61
57086;BME280;42964;42.910;23.792;2022-09-09T13:36:28;97499.66;;;29.24;39.59
57086;BME280;42964;42.910;23.792;2022-09-09T13:41:42;97508.41;;;29.15;39.66
57086;BME280;42964;42.910;23.792;2022-09-09T13:46:43;97499.06;;;29.32;39.97
57086;BME280;42964;42.910;23.792;2022-09-09T13:51:44;97506.22;;;29.42;39.71
57086;BME280;42964;42.910;23.792;2022-09-09T13:56:46;97491.84;;;29.43;39.57
57086;BME280;42964;42.910;23.792;2022-09-09T14:01:45;97493.31;;;29.47;39.83
57086;BME280;42964;42.910;23.792;2022-09-09T14:06:44;97489.16;;;29.55;39.40
57086;BME280;42964;42.910;23.792;2022-09-09T14:11:44;97482.69;;;29.57;39.69
57086;BME280;42964;42.910;23.792;2022-09-09T14:16:44;97482.34;;;29.50;39.42
57086;BME280;42964;42.910;23.792;2022-09-09T14:21:44;97479.72;;;29.39;39.67
57086;BME280;42964;42.910;23.792;2022-09-09T14:26:43;97477.81;;;29.19;39.83
57086;BME280;42964;42.910;23.792;2022-09-09T14:31:42;97487.41;;;28.99;39.51
57086;BME280;42964;42.910;23.792;2022-09-09T14:36:41;97482.44;;;28.94;40.30
57086;BME280;42964;42.910;23.792;2022-09-09T14:41:40;97480.50;;;29.07;40.41
57086;BME280;42964;42.910;23.792;2022-09-09T14:46:39;97480.22;;;29.11;40.79
57086;BME280;42964;42.910;23.792;2022-09-09T14:51:38;97471.75;;;29.05;41.04
57086;BME280;42964;42.910;23.792;2022-09-09T14:56:37;97473.84;;;29.02;41.51
57086;BME280;42964;42.910;23.792;2022-09-09T15:01:36;97477.88;;;28.74;41.36
57086;BME280;42964;42.910;23.792;2022-09-09T15:06:36;97481.59;;;28.60;41.46
57086;BME280;42964;42.910;23.792;2022-09-09T15:11:37;97491.53;;;28.58;41.93
57086;BME280;42964;42.910;23.792;2022-09-09T15:16:38;97492.25;;;28.49;42.57
57086;BME280;42964;42.910;23.792;2022-09-09T15:21:38;97484.97;;;28.39;42.66
57086;BME280;42964;42.910;23.792;2022-09-09T15:26:37;97489.94;;;28.33;42.91
57086;BME280;42964;42.910;23.792;2022-09-09T15:31:37;97485.81;;;28.17;43.39
57086;BME280;42964;42.910;23.792;2022-09-09T15:36:37;97486.94;;;28.02;43.84
57086;BME280;42964;42.910;23.792;2022-09-09T15:41:36;97479.72;;;27.91;43.36
57086;BME280;42964;42.910;23.792;2022-09-09T15:46:38;97479.94;;;27.77;43.89
57086;BME280;42964;42.910;23.792;2022-09-09T15:51:39;97469.22;;;27.66;44.36
57086;BME280;42964;42.910;23.792;2022-09-09T15:56:39;97482.69;;;27.64;43.98
57086;BME280;42964;42.910;23.792;2022-09-09T16:01:39;97484.63;;;27.62;44.02
57086;BME280;42964;42.910;23.792;2022-09-09T16:06:39;97481.03;;;27.50;44.62
57086;BME280;42964;42.910;23.792;2022-09-09T16:11:38;97479.38;;;27.36;44.49
57086;BME280;42964;42.910;23.792;2022-09-09T16:16:37;97487.53;;;27.22;45.00
57086;BME280;42964;42.910;23.792;2022-09-09T16:21:39;97478.03;;;26.94;45.24
57086;BME280;42964;42.910;23.792;2022-09-09T16:26:43;97471.34;;;26.50;45.68
57086;BME280;42964;42.910;23.792;2022-09-09T16:31:45;97481.38;;;26.21;46.21
57086;BME280;42964;42.910;23.792;2022-09-09T16:36:44;97460.13;;;25.93;46.67
57086;BME280;42964;42.910;23.792;2022-09-09T16:41:44;97462.00;;;25.66;46.85
57086;BME280;42964;42.910;23.792;2022-09-09T16:46:44;97471.38;;;25.44;47.53
57086;BME280;42964;42.910;23.792;2022-09-09T16:51:45;97482.94;;;25.16;47.79
57086;BME280;42964;42.910;23.792;2022-09-09T16:56:47;97472.75;;;24.96;48.33
57086;BME280;42964;42.910;23.792;2022-09-09T17:01:48;97469.41;;;24.78;48.75
57086;BME280;42964;42.910;23.792;2022-09-09T17:06:49;97471.25;;;24.63;49.05
57086;BME280;42964;42.910;23.792;2022-09-09T17:11:49;97473.06;;;24.48;49.56
57086;BME280;42964;42.910;23.792;2022-09-09T17:16:50;97484.22;;;24.39;49.54
57086;BME280;42964;42.910;23.792;2022-09-09T17:21:49;97487.53;;;24.28;50.00
57086;BME280;42964;42.910;23.792;2022-09-09T17:26:48;97499.56;;;24.19;49.90
57086;BME280;42964;42.910;23.792;2022-09-09T17:31:47;97505.47;;;24.09;50.25
57086;BME280;42964;42.910;23.792;2022-09-09T17:36:46;97508.66;;;23.99;50.52
57086;BME280;42964;42.910;23.792;2022-09-09T17:41:45;97512.81;;;23.89;51.17
57086;BME280;42964;42.910;23.792;2022-09-09T17:46:45;97521.88;;;23.85;51.41
57086;BME280;42964;42.910;23.792;2022-09-09T17:51:44;97527.72;;;23.76;51.74
57086;BME280;42964;42.910;23.792;2022-09-09T17:56:44;97537.47;;;23.59;52.40
57086;BME280;42964;42.910;23.792;2022-09-09T18:01:46;97540.84;;;23.47;52.74
57086;BME280;42964;42.910;23.792;2022-09-09T18:06:50;97547.38;;;23.40;53.75
57086;BME280;42964;42.910;23.792;2022-09-09T18:11:52;97551.47;;;23.14;55.90
57086;BME280;42964;42.910;23.792;2022-09-09T18:16:52;97552.31;;;22.98;56.25
57086;BME280;42964;42.910;23.792;2022-09-09T18:21:52;97552.47;;;22.79;57.96
57086;BME280;42964;42.910;23.792;2022-09-09T18:26:51;97540.41;;;22.56;58.26
57086;BME280;42964;42.910;23.792;2022-09-09T18:31:51;97556.13;;;22.59;58.94
57086;BME280;42964;42.910;23.792;2022-09-09T18:36:52;97564.22;;;22.56;59.01
57086;BME280;42964;42.910;23.792;2022-09-09T18:41:54;97571.31;;;22.56;59.41
57086;BME280;42964;42.910;23.792;2022-09-09T18:46:53;97573.59;;;22.46;60.40
57086;BME280;42964;42.910;23.792;2022-09-09T18:51:53;97575.34;;;22.46;60.62
57086;BME280;42964;42.910;23.792;2022-09-09T18:56:52;97576.13;;;22.48;60.53
57086;BME280;42964;42.910;23.792;2022-09-09T19:01:52;97578.47;;;22.54;59.97
57086;BME280;42964;42.910;23.792;2022-09-09T19:06:51;97575.81;;;22.54;61.19
57086;BME280;42964;42.910;23.792;2022-09-09T19:11:58;97566.97;;;22.37;61.70
57086;BME280;42964;42.910;23.792;2022-09-09T19:16:57;97562.53;;;22.38;62.31
57086;BME280;42964;42.910;23.792;2022-09-09T19:21:57;97556.41;;;22.37;62.26
57086;BME280;42964;42.910;23.792;2022-09-09T19:27:01;97543.34;;;22.34;62.89
57086;BME280;42964;42.910;23.792;2022-09-09T19:32:01;97529.41;;;22.31;63.04
57086;BME280;42964;42.910;23.792;2022-09-09T19:37:00;97535.78;;;22.27;63.64
57086;BME280;42964;42.910;23.792;2022-09-09T19:41:59;97531.63;;;22.23;63.70
57086;BME280;42964;42.910;23.792;2022-09-09T19:46:58;97502.84;;;22.16;63.78
57086;BME280;42964;42.910;23.792;2022-09-09T19:51:58;97515.06;;;22.19;64.73
57086;BME280;42964;42.910;23.792;2022-09-09T19:56:58;97502.72;;;22.02;66.05
57086;BME280;42964;42.910;23.792;2022-09-09T20:01:58;97507.22;;;22.00;65.91
57086;BME280;42964;42.910;23.792;2022-09-09T20:06:57;97514.91;;;22.05;65.76
57086;BME280;42964;42.910;23.792;2022-09-09T20:11:56;97502.91;;;21.97;67.24
57086;BME280;42964;42.910;23.792;2022-09-09T20:16:55;97493.84;;;21.86;67.54
57086;BME280;42964;42.910;23.792;2022-09-09T20:21:54;97487.50;;;21.71;68.07
57086;BME280;42964;42.910;23.792;2022-09-09T20:26:53;97493.28;;;21.62;68.80
57086;BME280;42964;42.910;23.792;2022-09-09T20:31:52;97498.94;;;21.54;69.72
57086;BME280;42964;42.910;23.792;2022-09-09T20:36:51;97504.31;;;21.33;71.21
57086;BME280;42964;42.910;23.792;2022-09-09T20:41:52;97505.19;;;21.15;72.71
57086;BME280;42964;42.910;23.792;2022-09-09T20:46:54;97509.59;;;20.96;73.13
57086;BME280;42964;42.910;23.792;2022-09-09T20:52:02;97513.56;;;20.87;73.19
57086;BME280;42964;42.910;23.792;2022-09-09T20:57:01;97507.59;;;20.82;73.65
57086;BME280;42964;42.910;23.792;2022-09-09T21:02:00;97501.84;;;20.74;73.76
57086;BME280;42964;42.910;23.792;2022-09-09T21:07:00;97517.59;;;20.75;73.71
57086;BME280;42964;42.910;23.792;2022-09-09T21:12:02;97515.88;;;20.74;74.04
57086;BME280;42964;42.910;23.792;2022-09-09T21:17:01;97513.31;;;20.73;74.01
57086;BME280;42964;42.910;23.792;2022-09-09T21:22:00;97518.56;;;20.73;74.30
57086;BME280;42964;42.910;23.792;2022-09-09T21:26:59;97513.59;;;20.66;74.44
57086;BME280;42964;42.910;23.792;2022-09-09T21:31:58;97510.03;;;20.67;74.51
57086;BME280;42964;42.910;23.792;2022-09-09T21:36:58;97518.28;;;20.60;75.18
57086;BME280;42964;42.910;23.792;2022-09-09T21:41:57;97511.00;;;20.46;75.18
57086;BME280;42964;42.910;23.792;2022-09-09T21:46:56;97516.53;;;20.40;75.55
57086;BME280;42964;42.910;23.792;2022-09-09T21:51:55;97514.94;;;20.36;75.74
57086;BME280;42964;42.910;23.792;2022-09-09T21:56:56;97509.94;;;20.09;78.05
57086;BME280;42964;42.910;23.792;2022-09-09T22:01:55;97497.06;;;19.82;80.64
57086;BME280;42964;42.910;23.792;2022-09-09T22:06:54;97486.25;;;19.68;80.48
57086;BME280;42964;42.910;23.792;2022-09-09T22:11:53;97493.72;;;19.57;81.08
57086;BME280;42964;42.910;23.792;2022-09-09T22:16:52;97494.13;;;19.46;81.99
57086;BME280;42964;42.910;23.792;2022-09-09T22:21:52;97494.06;;;19.48;81.31
57086;BME280;42964;42.910;23.792;2022-09-09T22:26:51;97488.69;;;19.51;81.06
57086;BME280;42964;42.910;23.792;2022-09-09T22:31:51;97490.66;;;19.45;82.11
57086;BME280;42964;42.910;23.792;2022-09-09T22:36:50;97488.28;;;19.39;82.39
57086;BME280;42964;42.910;23.792;2022-09-09T22:41:49;97485.03;;;19.33;82.73
57086;BME280;42964;42.910;23.792;2022-09-09T22:46:49;97480.63;;;19.33;83.14
57086;BME280;42964;42.910;23.792;2022-09-09T22:51:48;97480.19;;;19.22;83.98
57086;BME280;42964;42.910;23.792;2022-09-09T22:56:50;97472.50;;;18.95;85.33
57086;BME280;42964;42.910;23.792;2022-09-09T23:01:49;97471.94;;;18.87;85.44
57086;BME280;42964;42.910;23.792;2022-09-09T23:06:49;97471.22;;;18.84;85.29
57086;BME280;42964;42.910;23.792;2022-09-09T23:11:47;97465.78;;;18.88;85.02
57086;BME280;42964;42.910;23.792;2022-09-09T23:16:46;97473.56;;;18.90;84.48
57086;BME280;42964;42.910;23.792;2022-09-09T23:21:46;97468.28;;;18.91;84.47
57086;BME280;42964;42.910;23.792;2022-09-09T23:26:45;97462.16;;;18.91;84.53
57086;BME280;42964;42.910;23.792;2022-09-09T23:31:45;97436.09;;;18.85;84.70
57086;BME280;42964;42.910;23.792;2022-09-09T23:36:44;97446.38;;;18.91;84.63
57086;BME280;42964;42.910;23.792;2022-09-09T23:41:43;97456.16;;;18.87;84.79
57086;BME280;42964;42.910;23.792;2022-09-09T23:46:43;97451.03;;;18.84;85.45
57086;BME280;42964;42.910;23.792;2022-09-09T23:51:41;97443.31;;;18.79;85.34
57086;BME280;42964;42.910;23.792;2022-09-09T23:56:40;97441.72;;;18.75;85.25
